Time;durP1;ratioP1;P1;durP2;ratioP2;P2;SDS_P1;SDS_P2;PMS_P1;PMS_P2;Temp;Humidity;BMP_temperature;BMP_pressure;BME280_temperature;BME280_humidity;BME280_pressure;Samples;Min_cycle;Max_cycle;Signal;HPM_P1;HPM_P2
2021/06/03 00:02:22;;;;;;;9.23;5.47;;;16.90;95.00;;;;;;5096629;28;20047;-72
2021/06/03 00:04:48;;;;;;;8.02;4.80;;;17.00;94.90;;;;;;5093940;28;20099;-72
2021/06/03 00:07:14;;;;;;;7.85;5.18;;;17.00;94.80;;;;;;5095478;28;20023;-72
2021/06/03 00:09:40;;;;;;;6.93;4.32;;;17.00;94.90;;;;;;5099710;28;20468;-72
2021/06/03 00:12:08;;;;;;;6.60;4.97;;;16.80;95.10;;;;;;5105525;28;20505;-72
2021/06/03 00:14:34;;;;;;;8.15;5.30;;;16.80;95.20;;;;;;5104352;28;20036;-72
2021/06/03 00:17:01;;;;;;;8.48;5.28;;;16.80;95.20;;;;;;5097443;28;20081;-72
2021/06/03 00:19:27;;;;;;;9.30;4.95;;;16.70;95.30;;;;;;5094319;28;20027;-72
2021/06/03 00:21:54;;;;;;;7.60;5.20;;;16.70;95.30;;;;;;5096772;28;20035;-72
2021/06/03 00:24:21;;;;;;;12.55;6.10;;;16.70;95.40;;;;;;5094473;28;20038;-72
2021/06/03 00:26:46;;;;;;;7.28;5.55;;;16.60;95.50;;;;;;5094450;28;20035;-72
2021/06/03 00:29:14;;;;;;;8.05;5.53;;;16.60;95.50;;;;;;5093552;28;20050;-71
2021/06/03 00:31:40;;;;;;;8.13;5.50;;;16.60;95.60;;;;;;5113773;28;20038;-72
2021/06/03 00:34:06;;;;;;;8.27;5.47;;;16.50;95.80;;;;;;5097014;28;20051;-72
2021/06/03 00:36:32;;;;;;;9.23;5.47;;;16.40;96.00;;;;;;5094816;28;20024;-72
2021/06/03 00:38:57;;;;;;;7.68;5.18;;;16.40;96.30;;;;;;5109652;28;20027;-72
2021/06/03 00:41:23;;;;;;;8.35;5.72;;;16.30;96.30;;;;;;5114261;28;20085;-72
2021/06/03 00:43:49;;;;;;;9.23;4.95;;;16.30;96.30;;;;;;5100552;28;20024;-71
2021/06/03 00:46:15;;;;;;;8.60;5.35;;;16.30;96.30;;;;;;5093819;28;20415;-72
2021/06/03 00:48:41;;;;;;;9.55;5.47;;;16.30;96.30;;;;;;5112906;28;20046;-72
2021/06/03 00:51:09;;;;;;;11.60;6.50;;;16.30;96.30;;;;;;5109258;28;20059;-72
2021/06/03 00:53:38;;;;;;;9.57;6.00;;;16.40;96.30;;;;;;5103766;28;20028;-72
2021/06/03 00:56:05;;;;;;;8.82;5.57;;;16.30;96.40;;;;;;5093890;28;20038;-71
2021/06/03 00:58:31;;;;;;;8.65;5.30;;;16.40;96.20;;;;;;5094565;28;20094;-72
2021/06/03 01:00:57;;;;;;;8.18;5.50;;;16.40;96.30;;;;;;5102477;28;20119;-71
2021/06/03 01:03:25;;;;;;;9.15;5.82;;;16.30;96.40;;;;;;5096434;28;20107;-71
2021/06/03 01:06:00;;;;;;;10.55;5.47;;;16.30;96.50;;;;;;5099230;28;20089;-72
2021/06/03 01:08:40;;;;;;;8.98;5.50;;;16.20;96.60;;;;;;5109609;28;20103;-72
2021/06/03 01:11:27;;;;;;;7.72;5.63;;;16.40;96.60;;;;;;5112235;28;20027;-71
2021/06/03 01:14:02;;;;;;;11.18;5.70;;;16.50;96.30;;;;;;5111822;28;20043;-72
2021/06/03 01:16:29;;;;;;;11.95;5.38;;;16.70;95.90;;;;;;5093034;28;20035;-72
2021/06/03 01:18:57;;;;;;;9.07;5.20;;;16.50;96.30;;;;;;5101019;27;20023;-71
2021/06/03 01:21:38;;;;;;;8.23;5.88;;;16.10;96.80;;;;;;5093156;28;20039;-72
2021/06/03 01:24:23;;;;;;;10.43;5.63;;;16.00;97.00;;;;;;5095254;28;20085;-72
2021/06/03 01:26:50;;;;;;;9.00;5.93;;;16.00;97.10;;;;;;5111131;28;20035;-72
2021/06/03 01:29:18;;;;;;;9.75;4.90;;;15.90;97.30;;;;;;5094630;28;20485;-72
2021/06/03 01:31:46;;;;;;;8.40;4.85;;;15.90;97.40;;;;;;5092861;28;20020;-71
2021/06/03 01:34:13;;;;;;;8.90;5.28;;;15.90;97.50;;;;;;5104001;28;20488;-72
2021/06/03 01:36:39;;;;;;;8.25;5.63;;;15.90;97.50;;;;;;5092673;28;20057;-71
2021/06/03 01:39:07;;;;;;;10.50;4.97;;;15.90;97.60;;;;;;5101480;28;20422;-72
2021/06/03 01:41:34;;;;;;;6.97;5.00;;;15.90;97.50;;;;;;5102731;28;20028;-71
2021/06/03 01:44:00;;;;;;;10.57;6.70;;;15.90;97.50;;;;;;5093751;28;20040;-71
2021/06/03 01:46:26;;;;;;;8.68;5.68;;;15.90;97.50;;;;;;5097891;28;20024;-72
2021/06/03 01:48:56;;;;;;;7.72;5.93;;;16.00;97.50;;;;;;5109222;28;20156;-71
2021/06/03 01:51:23;;;;;;;8.30;5.35;;;16.00;97.40;;;;;;5093943;28;20132;-72
2021/06/03 01:53:50;;;;;;;10.90;6.22;;;16.20;97.20;;;;;;5111077;28;20031;-72
2021/06/03 01:56:17;;;;;;;9.00;5.93;;;16.10;97.30;;;;;;5105592;28;20064;-72
2021/06/03 01:58:44;;;;;;;7.88;5.25;;;15.90;97.50;;;;;;5103487;28;20482;-72
2021/06/03 02:01:10;;;;;;;7.47;5.35;;;15.90;97.60;;;;;;5105133;28;20524;-72
2021/06/03 02:03:36;;;;;;;8.43;6.13;;;15.80;97.80;;;;;;5106124;28;20055;-72
2021/06/03 02:06:03;;;;;;;8.45;6.15;;;15.90;97.60;;;;;;5091790;28;20024;-72
2021/06/03 02:08:29;;;;;;;10.00;5.68;;;15.80;97.80;;;;;;5108918;28;20047;-72
2021/06/03 02:10:55;;;;;;;7.65;5.95;;;15.90;97.70;;;;;;5091348;28;20020;-71
2021/06/03 02:13:59;;;;;;;6.85;5.05;;;16.00;97.70;;;;;;5096202;28;20036;-72
2021/06/03 02:16:26;;;;;;;8.88;5.95;;;15.90;97.70;;;;;;5091731;28;20458;-71
2021/06/03 02:19:01;;;;;;;9.88;6.32;;;16.10;97.50;;;;;;5106661;28;20358;-72
2021/06/03 02:21:28;;;;;;;9.18;6.45;;;15.60;97.90;;;;;;5092424;28;20098;-72
2021/06/03 02:23:57;;;;;;;10.02;6.03;;;15.60;98.30;;;;;;5095194;28;20027;-72
2021/06/03 02:26:24;;;;;;;9.25;6.47;;;15.50;98.30;;;;;;5093172;28;20509;-71
2021/06/03 02:28:50;;;;;;;8.45;6.78;;;15.40;98.60;;;;;;5092243;28;20520;-72
2021/06/03 02:31:16;;;;;;;13.63;6.88;;;15.40;98.60;;;;;;5108198;28;20027;-72
2021/06/03 02:33:43;;;;;;;10.55;5.85;;;15.40;98.70;;;;;;5102276;28;20028;-71
2021/06/03 02:36:09;;;;;;;8.77;5.55;;;15.40;98.60;;;;;;5099707;28;20111;-71
2021/06/03 02:38:36;;;;;;;7.60;5.35;;;15.40;98.70;;;;;;5090376;28;20512;-72
2021/06/03 02:41:06;;;;;;;7.65;5.07;;;15.40;98.80;;;;;;5101761;28;20032;-71
2021/06/03 02:43:33;;;;;;;9.90;5.72;;;15.40;98.80;;;;;;5104534;28;20558;-71
2021/06/03 02:46:00;;;;;;;12.38;7.00;;;15.40;98.90;;;;;;5093082;28;20489;-71
2021/06/03 02:48:26;;;;;;;11.00;5.78;;;15.40;98.80;;;;;;5095095;28;20020;-72
2021/06/03 02:50:52;;;;;;;15.57;5.80;;;15.50;98.80;;;;;;5109742;28;20020;-71
2021/06/03 02:53:18;;;;;;;7.88;5.57;;;15.50;98.70;;;;;;5114283;28;20039;-72
2021/06/03 02:55:44;;;;;;;9.25;5.68;;;15.50;98.70;;;;;;5114642;28;20031;-71
2021/06/03 02:58:10;;;;;;;10.07;5.45;;;15.50;99.10;;;;;;5115189;27;20027;-72
2021/06/03 03:00:37;;;;;;;7.97;5.43;;;15.40;99.00;;;;;;5113147;28;20015;-72
2021/06/03 03:03:05;;;;;;;10.23;6.05;;;15.40;98.90;;;;;;5091148;28;20085;-72
2021/06/03 03:05:31;;;;;;;9.20;6.07;;;15.30;99.00;;;;;;5101350;28;20031;-72
2021/06/03 03:07:57;;;;;;;8.02;6.00;;;15.50;99.10;;;;;;5091349;28;20027;-72
2021/06/03 03:10:26;;;;;;;8.27;5.68;;;15.30;99.10;;;;;;5100804;28;20028;-72
2021/06/03 03:12:52;;;;;;;8.82;5.55;;;15.10;99.30;;;;;;5099466;28;20024;-72
2021/06/03 03:15:19;;;;;;;10.18;6.32;;;15.10;99.70;;;;;;5100086;28;20050;-72
2021/06/03 03:17:45;;;;;;;8.77;6.35;;;15.30;99.30;;;;;;5103082;28;20031;-71
2021/06/03 03:20:12;;;;;;;9.02;6.75;;;15.10;99.50;;;;;;5093251;28;20031;-72
2021/06/03 03:22:41;;;;;;;9.48;6.70;;;15.30;99.30;;;;;;5087684;28;20093;-72
2021/06/03 03:25:09;;;;;;;9.05;6.20;;;15.20;99.50;;;;;;5089262;28;20031;-72
2021/06/03 03:27:35;;;;;;;11.15;6.50;;;15.20;99.60;;;;;;5088501;28;20036;-71
2021/06/03 03:30:03;;;;;;;9.30;6.80;;;15.20;99.50;;;;;;5099178;28;20035;-72
2021/06/03 03:32:29;;;;;;;8.75;6.30;;;15.20;99.50;;;;;;5107032;28;20116;-72
2021/06/03 03:34:55;;;;;;;10.25;7.50;;;15.10;99.80;;;;;;5089637;28;20165;-72
2021/06/03 03:37:20;;;;;;;10.52;7.22;;;15.30;99.50;;;;;;5094886;28;20024;-72
2021/06/03 03:39:46;;;;;;;9.57;7.03;;;15.40;99.20;;;;;;5088288;28;20028;-72
2021/06/03 03:42:12;;;;;;;9.85;7.00;;;15.30;99.30;;;;;;5090298;28;20552;-72
2021/06/03 03:44:38;;;;;;;10.93;7.47;;;15.30;99.50;;;;;;5092262;28;20030;-72
2021/06/03 03:47:04;;;;;;;10.35;7.00;;;15.00;99.80;;;;;;5100187;28;20043;-72
2021/06/03 03:49:29;;;;;;;10.82;6.90;;;15.00;99.90;;;;;;5087368;28;20123;-72
2021/06/03 03:51:55;;;;;;;10.40;6.70;;;14.70;99.90;;;;;;5087281;28;20127;-72
2021/06/03 03:54:21;;;;;;;9.32;5.50;;;14.80;99.90;;;;;;5106453;28;20024;-72
2021/06/03 03:56:46;;;;;;;10.40;7.20;;;14.70;99.90;;;;;;5096347;28;20024;-72
2021/06/03 03:59:12;;;;;;;9.93;6.85;;;14.70;99.90;;;;;;5087247;28;20028;-72
2021/06/03 04:01:38;;;;;;;10.43;7.30;;;14.60;99.90;;;;;;5104236;28;20043;-72
2021/06/03 04:04:04;;;;;;;10.80;7.30;;;14.60;99.90;;;;;;5101418;28;20079;-72
2021/06/03 04:06:29;;;;;;;10.80;6.53;;;14.70;99.90;;;;;;5093079;28;20173;-72
2021/06/03 04:08:55;;;;;;;13.05;7.63;;;14.70;99.90;;;;;;5092051;28;20111;-72
2021/06/03 04:11:24;;;;;;;11.57;7.53;;;14.70;99.90;;;;;;5101304;28;20023;-72
2021/06/03 04:13:51;;;;;;;11.05;7.47;;;14.70;99.90;;;;;;5090922;28;20040;-71
2021/06/03 04:16:17;;;;;;;10.27;7.10;;;14.50;99.90;;;;;;5092437;28;20030;-71
2021/06/03 04:18:42;;;;;;;11.43;7.40;;;14.80;99.90;;;;;;5097313;28;20645;-72
2021/06/03 04:21:08;;;;;;;8.80;6.43;;;14.80;99.90;;;;;;5106527;28;20043;-71
2021/06/03 04:23:34;;;;;;;9.68;7.18;;;14.80;99.90;;;;;;5099365;28;20023;-72
2021/06/03 04:25:59;;;;;;;9.98;7.20;;;14.90;99.90;;;;;;5101804;28;20032;-73
2021/06/03 04:28:25;;;;;;;10.90;6.57;;;14.80;99.90;;;;;;5087466;28;20024;-72
2021/06/03 04:30:51;;;;;;;13.75;6.60;;;14.70;99.90;;;;;;5097195;28;20019;-72
2021/06/03 04:33:20;;;;;;;10.73;7.40;;;14.90;99.90;;;;;;5094090;28;20030;-72
2021/06/03 04:35:47;;;;;;;9.35;6.65;;;14.70;99.90;;;;;;5104933;28;20026;-72
2021/06/03 04:38:13;;;;;;;13.27;7.25;;;14.80;99.90;;;;;;5100610;28;20039;-72
2021/06/03 04:40:38;;;;;;;10.90;7.63;;;14.90;99.90;;;;;;5106063;28;20504;-72
2021/06/03 04:43:05;;;;;;;10.32;8.00;;;14.80;99.90;;;;;;5091296;28;20044;-71
2021/06/03 04:45:34;;;;;;;10.18;7.00;;;14.80;99.90;;;;;;5086318;28;20047;-72
2021/06/03 04:47:59;;;;;;;8.95;6.95;;;14.50;99.90;;;;;;5087245;28;20028;-72
2021/06/03 04:50:25;;;;;;;9.65;7.05;;;14.30;99.90;;;;;;5084438;28;20035;-72
2021/06/03 04:52:52;;;;;;;10.05;7.65;;;14.40;99.90;;;;;;5097059;28;20092;-72
2021/06/03 04:55:21;;;;;;;10.15;7.28;;;14.60;99.90;;;;;;5103830;28;20055;-72
2021/06/03 04:57:48;;;;;;;8.88;6.47;;;14.70;99.90;;;;;;5100039;28;20031;-72
2021/06/03 05:00:17;;;;;;;11.93;7.28;;;14.70;99.90;;;;;;5096284;28;20052;-72
2021/06/03 05:02:43;;;;;;;11.15;6.70;;;14.70;99.90;;;;;;5096858;28;20046;-72
2021/06/03 05:05:10;;;;;;;9.48;6.50;;;14.80;99.90;;;;;;5097197;28;20542;-72
2021/06/03 05:07:36;;;;;;;9.38;6.50;;;14.80;99.90;;;;;;5087620;28;20032;-72
2021/06/03 05:10:04;;;;;;;9.75;7.47;;;14.90;99.90;;;;;;5097923;28;20043;-71
2021/06/03 05:12:30;;;;;;;13.07;6.97;;;14.90;99.90;;;;;;5084829;28;20032;-71
2021/06/03 05:14:56;;;;;;;12.20;7.68;;;14.90;99.90;;;;;;5094046;28;20048;-73
2021/06/03 05:17:21;;;;;;;14.20;7.53;;;15.00;99.90;;;;;;5107219;28;20571;-73
2021/06/03 05:19:47;;;;;;;13.27;7.80;;;15.00;99.90;;;;;;5089479;28;20020;-71
2021/06/03 05:22:13;;;;;;;12.70;7.05;;;15.00;99.90;;;;;;5085740;28;20034;-71
2021/06/03 05:24:38;;;;;;;12.05;7.35;;;15.10;99.90;;;;;;5087566;28;20054;-71
2021/06/03 05:27:05;;;;;;;9.88;7.13;;;15.10;99.90;;;;;;5087634;28;20039;-72
2021/06/03 05:29:31;;;;;;;8.88;6.20;;;15.30;99.90;;;;;;5086096;28;20522;-72
2021/06/03 05:31:57;;;;;;;8.82;6.70;;;15.50;99.90;;;;;;5085710;28;20085;-72
2021/06/03 05:34:23;;;;;;;10.82;6.45;;;15.50;99.90;;;;;;5085407;28;20024;-73
2021/06/03 05:36:49;;;;;;;9.43;6.30;;;15.60;99.90;;;;;;5084052;28;20454;-72
2021/06/03 05:39:15;;;;;;;11.63;7.13;;;15.60;99.90;;;;;;5087200;28;20156;-72
2021/06/03 05:41:42;;;;;;;10.57;7.45;;;15.70;99.90;;;;;;5091753;28;20538;-72
2021/06/03 05:44:09;;;;;;;11.32;7.82;;;15.70;99.90;;;;;;5085455;28;20060;-71
2021/06/03 05:46:36;;;;;;;8.75;6.45;;;15.80;99.90;;;;;;5099625;28;20639;-72
2021/06/03 05:49:04;;;;;;;10.40;7.03;;;16.00;99.90;;;;;;5090516;28;20555;-71
2021/06/03 05:51:30;;;;;;;8.73;6.60;;;16.10;99.90;;;;;;5084906;28;20056;-71
2021/06/03 05:53:57;;;;;;;11.15;6.95;;;16.10;99.90;;;;;;5087433;28;20031;-71
2021/06/03 05:56:24;;;;;;;9.90;7.43;;;16.10;99.90;;;;;;5084977;28;20034;-71
2021/06/03 05:58:51;;;;;;;17.25;7.05;;;16.10;99.90;;;;;;5094400;28;20016;-71
2021/06/03 06:01:17;;;;;;;10.65;6.35;;;16.10;99.90;;;;;;5104459;28;20028;-71
2021/06/03 06:03:47;;;;;;;8.13;6.15;;;16.10;99.90;;;;;;5102974;28;20023;-71
2021/06/03 06:08:41;;;;;;;8.48;5.90;;;16.30;99.90;;;;;;5084303;28;20051;-71
2021/06/03 06:11:07;;;;;;;8.15;5.68;;;16.30;99.90;;;;;;5084183;28;20020;-72
2021/06/03 06:13:34;;;;;;;8.45;6.10;;;16.30;99.90;;;;;;5082966;28;20040;-71
2021/06/03 06:16:00;;;;;;;11.93;6.10;;;16.40;99.90;;;;;;5100737;28;20028;-71
2021/06/03 06:18:26;;;;;;;9.52;6.78;;;16.50;99.90;;;;;;5104035;28;20599;-71
2021/06/03 06:20:51;;;;;;;8.25;5.93;;;16.60;99.90;;;;;;5088916;28;20042;-72
2021/06/03 06:23:18;;;;;;;12.40;6.55;;;16.70;99.90;;;;;;5103829;28;20043;-72
2021/06/03 06:25:45;;;;;;;7.25;5.60;;;16.80;99.90;;;;;;5099481;28;20088;-71
2021/06/03 06:28:12;;;;;;;8.93;6.82;;;16.90;99.90;;;;;;5102964;28;20027;-72
2021/06/03 06:30:38;;;;;;;11.60;6.60;;;17.00;99.90;;;;;;5087991;28;20049;-71
2021/06/03 06:33:04;;;;;;;11.70;6.95;;;17.10;99.90;;;;;;5083712;28;20024;-71
2021/06/03 06:35:31;;;;;;;8.27;5.38;;;17.10;99.80;;;;;;5090501;28;20120;-71
2021/06/03 06:37:57;;;;;;;10.70;5.75;;;17.10;99.50;;;;;;5083954;28;20038;-71
2021/06/03 06:40:23;;;;;;;9.27;5.53;;;17.10;99.10;;;;;;5083885;28;20020;-71
2021/06/03 06:42:55;;;;;;;10.48;6.05;;;17.20;99.60;;;;;;5083923;28;20072;-71
2021/06/03 06:45:23;;;;;;;9.18;5.93;;;17.30;99.40;;;;;;5083778;28;20107;-72
2021/06/03 06:47:50;;;;;;;12.32;6.53;;;17.40;99.20;;;;;;5085500;28;20438;-71
2021/06/03 06:50:16;;;;;;;8.32;6.13;;;17.50;99.20;;;;;;5083751;28;20028;-71
2021/06/03 06:52:42;;;;;;;8.55;6.13;;;17.60;98.40;;;;;;5082983;28;20031;-71
2021/06/03 06:55:09;;;;;;;8.20;6.07;;;17.80;98.10;;;;;;5083405;28;20103;-71
2021/06/03 06:57:35;;;;;;;11.73;6.75;;;18.00;97.70;;;;;;5083936;28;20043;-73
2021/06/03 07:00:06;;;;;;;10.00;6.63;;;18.10;97.60;;;;;;5085131;28;20052;-74
2021/06/03 07:02:32;;;;;;;8.38;5.85;;;18.40;97.70;;;;;;5093176;28;20028;-72
2021/06/03 07:04:58;;;;;;;8.65;6.32;;;18.50;97.10;;;;;;5085917;28;20023;-74
2021/06/03 07:07:23;;;;;;;9.13;6.22;;;18.80;96.50;;;;;;5090328;28;20035;-74
2021/06/03 07:09:49;;;;;;;8.70;5.60;;;18.90;95.90;;;;;;5083791;28;20395;-75
2021/06/03 07:12:15;;;;;;;12.43;7.07;;;19.20;96.10;;;;;;5083477;28;20020;-74
2021/06/03 07:14:41;;;;;;;10.30;6.35;;;19.40;95.30;;;;;;5083531;28;20063;-73
2021/06/03 07:17:07;;;;;;;10.00;6.00;;;19.50;94.90;;;;;;5089833;28;20027;-73
2021/06/03 07:19:33;;;;;;;10.02;6.13;;;19.70;95.30;;;;;;5089745;28;20024;-74
2021/06/03 07:21:59;;;;;;;7.82;5.60;;;19.90;95.80;;;;;;5083563;28;20115;-73
2021/06/03 07:24:25;;;;;;;8.98;6.13;;;20.10;95.60;;;;;;5083439;28;20103;-73
2021/06/03 07:26:50;;;;;;;10.98;5.80;;;20.40;94.30;;;;;;5083454;28;20059;-73
2021/06/03 07:29:16;;;;;;;7.43;5.68;;;21.20;94.00;;;;;;5083665;28;20421;-73
2021/06/03 07:31:42;;;;;;;7.68;5.80;;;22.00;92.80;;;;;;5093841;28;20092;-73
2021/06/03 07:34:08;;;;;;;14.07;5.63;;;22.70;92.30;;;;;;5102472;28;20024;-73
2021/06/03 07:36:34;;;;;;;7.07;5.43;;;23.40;91.00;;;;;;5103998;28;20034;-73
2021/06/03 07:39:03;;;;;;;33.63;7.60;;;23.60;90.10;;;;;;5088886;28;20101;-73
2021/06/03 07:41:29;;;;;;;30.65;8.10;;;24.20;90.10;;;;;;5086732;28;20137;-73
2021/06/03 07:43:55;;;;;;;8.63;5.40;;;24.30;89.80;;;;;;5106563;28;20150;-73
2021/06/03 07:46:20;;;;;;;12.40;7.28;;;24.30;89.90;;;;;;5106499;27;20197;-74
2021/06/03 07:48:46;;;;;;;8.35;5.97;;;24.00;89.40;;;;;;5093641;28;20024;-73
2021/06/03 07:51:12;;;;;;;11.13;6.60;;;23.90;89.40;;;;;;5087323;28;20039;-73
2021/06/03 07:53:39;;;;;;;13.18;6.05;;;24.00;89.20;;;;;;5099400;28;20027;-73
2021/06/03 07:56:05;;;;;;;13.45;5.50;;;23.50;89.60;;;;;;5105907;28;20028;-73
2021/06/03 07:58:31;;;;;;;72.13;9.60;;;22.90;90.50;;;;;;5098536;28;20070;-73
2021/06/03 08:00:57;;;;;;;8.60;5.47;;;22.20;90.70;;;;;;5086658;28;20453;-73
2021/06/03 08:03:23;;;;;;;9.88;5.90;;;21.80;91.00;;;;;;5093516;28;20111;-73
2021/06/03 08:05:48;;;;;;;10.25;5.68;;;21.80;91.40;;;;;;5106937;28;20059;-73
2021/06/03 08:08:14;;;;;;;8.38;5.93;;;22.00;91.60;;;;;;5103694;28;20055;-73
2021/06/03 08:10:41;;;;;;;16.90;6.10;;;22.30;91.60;;;;;;5086658;28;20153;-73
2021/06/03 08:13:08;;;;;;;12.35;6.18;;;22.20;91.70;;;;;;5087650;28;20028;-73
2021/06/03 08:15:35;;;;;;;10.48;5.82;;;22.10;91.10;;;;;;5106803;28;20108;-73
2021/06/03 08:18:02;;;;;;;9.13;6.80;;;22.50;91.60;;;;;;5106425;27;20030;-73
2021/06/03 08:20:32;;;;;;;8.82;5.88;;;22.40;91.50;;;;;;5087188;28;20028;-73
2021/06/03 08:22:58;;;;;;;7.45;5.65;;;22.30;91.60;;;;;;5086620;28;20093;-73
2021/06/03 08:25:24;;;;;;;8.38;6.07;;;22.30;91.20;;;;;;5086304;28;21035;-73
2021/06/03 08:27:50;;;;;;;7.15;5.93;;;22.10;91.60;;;;;;5086010;28;20035;-73
2021/06/03 08:30:16;;;;;;;11.70;6.20;;;22.10;91.50;;;;;;5099179;28;20024;-73
2021/06/03 08:32:48;;;;;;;16.80;6.75;;;22.30;91.60;;;;;;5106496;27;20015;-73
2021/06/03 08:35:16;;;;;;;9.07;5.88;;;22.60;92.00;;;;;;5103004;28;20032;-73
2021/06/03 08:37:43;;;;;;;11.75;6.82;;;22.50;91.50;;;;;;5105160;28;20066;-73
2021/06/03 08:40:10;;;;;;;13.05;6.43;;;22.40;91.20;;;;;;5097619;28;20042;-73
2021/06/03 08:42:36;;;;;;;10.57;6.95;;;22.60;91.50;;;;;;5102750;28;20843;-73
2021/06/03 08:45:03;;;;;;;9.60;6.28;;;22.40;90.90;;;;;;5085991;28;20027;-73
2021/06/03 08:47:29;;;;;;;6.88;4.93;;;22.50;90.60;;;;;;5089090;28;20039;-73
2021/06/03 08:49:56;;;;;;;8.00;6.30;;;22.80;90.60;;;;;;5098090;28;20042;-73
2021/06/03 08:52:22;;;;;;;8.20;5.28;;;22.70;90.40;;;;;;5096120;28;20024;-73
2021/06/03 08:54:53;;;;;;;13.77;6.03;;;22.80;90.70;;;;;;5105472;28;20035;-73
2021/06/03 08:57:18;;;;;;;10.18;6.05;;;22.80;91.00;;;;;;5106156;28;20027;-73
2021/06/03 08:59:44;;;;;;;7.70;5.43;;;23.10;91.10;;;;;;5092497;28;20056;-74
2021/06/03 09:02:10;;;;;;;10.10;6.10;;;23.20;90.70;;;;;;5091440;28;20603;-73
2021/06/03 09:04:36;;;;;;;8.85;6.03;;;23.30;90.20;;;;;;5085137;28;20063;-73
2021/06/03 09:07:02;;;;;;;8.30;5.68;;;23.50;90.30;;;;;;5093158;28;20618;-73
2021/06/03 09:09:30;;;;;;;9.52;5.53;;;23.50;91.40;;;;;;5093759;28;20498;-73
2021/06/03 09:12:14;;;;;;;7.95;5.25;;;23.80;90.90;;;;;;5100324;28;20034;-73
2021/06/03 09:14:41;;;;;;;11.63;6.05;;;23.80;91.10;;;;;;5084705;28;20683;-73
2021/06/03 09:17:09;;;;;;;11.95;6.55;;;23.80;91.10;;;;;;5087902;28;20401;-73
2021/06/03 09:19:35;;;;;;;11.38;6.95;;;23.80;90.10;;;;;;5105309;28;20095;-73
2021/06/03 09:22:02;;;;;;;8.88;7.03;;;23.50;89.50;;;;;;5090867;28;20133;-73
2021/06/03 09:24:32;;;;;;;8.52;6.43;;;23.70;90.50;;;;;;5100007;28;20135;-73
2021/06/03 09:27:01;;;;;;;12.15;6.72;;;24.10;89.50;;;;;;5092785;28;20096;-73
2021/06/03 09:29:32;;;;;;;8.25;5.93;;;24.40;89.30;;;;;;5084337;28;20024;-73
2021/06/03 09:32:17;;;;;;;9.50;6.50;;;24.30;89.60;;;;;;5092983;28;20026;-73
2021/06/03 09:34:54;;;;;;;12.77;6.93;;;24.40;87.40;;;;;;5084112;28;20084;-73
2021/06/03 09:37:20;;;;;;;10.48;6.75;;;24.30;90.40;;;;;;5096593;28;20065;-73
2021/06/03 09:39:46;;;;;;;13.02;8.65;;;24.60;88.60;;;;;;5085398;28;20055;-73
2021/06/03 09:42:18;;;;;;;13.50;9.27;;;24.90;86.20;;;;;;5099612;28;20066;-73
2021/06/03 09:44:55;;;;;;;11.32;8.07;;;24.40;84.10;;;;;;5102467;28;20027;-74
2021/06/03 09:47:26;;;;;;;9.25;6.55;;;24.40;86.10;;;;;;5086408;27;20034;-74
2021/06/03 09:49:58;;;;;;;7.53;5.88;;;24.60;88.60;;;;;;5087129;28;20499;-74
2021/06/03 09:52:33;;;;;;;10.73;6.72;;;25.20;88.20;;;;;;5095757;28;20059;-74
2021/06/03 09:55:01;;;;;;;12.10;7.55;;;25.40;86.40;;;;;;5084075;28;20023;-74
2021/06/03 09:57:30;;;;;;;11.90;6.97;;;25.30;85.70;;;;;;5083922;28;20031;-74
2021/06/03 10:00:16;;;;;;;8.48;6.70;;;25.20;86.80;;;;;;5084315;28;20115;-74
2021/06/03 10:02:43;;;;;;;13.80;8.70;;;25.50;85.70;;;;;;5093813;28;20036;-74
2021/06/03 10:05:27;;;;;;;11.05;8.35;;;25.30;84.00;;;;;;5085830;28;20020;-74
2021/06/03 10:07:58;;;;;;;15.18;7.55;;;24.90;83.80;;;;;;5083575;28;20095;-74
2021/06/03 10:10:26;;;;;;;12.38;7.75;;;24.90;84.70;;;;;;5084059;28;20031;-74
2021/06/03 10:12:52;;;;;;;8.63;6.53;;;25.20;84.30;;;;;;5084831;28;20099;-74
2021/06/03 10:15:20;;;;;;;9.65;7.00;;;25.30;87.10;;;;;;5088698;28;20131;-74
2021/06/03 10:17:49;;;;;;;15.57;7.75;;;25.30;87.00;;;;;;5095584;28;20393;-74
2021/06/03 10:20:22;;;;;;;9.85;7.38;;;25.40;86.40;;;;;;5104584;28;20031;-74
2021/06/03 10:22:50;;;;;;;16.90;6.82;;;25.40;87.00;;;;;;5092564;28;20397;-75
2021/06/03 10:25:21;;;;;;;8.45;6.22;;;25.40;87.00;;;;;;5083746;28;20413;-74
2021/06/03 10:28:15;;;;;;;9.05;6.93;;;25.30;88.10;;;;;;5093514;28;20028;-74
2021/06/03 10:30:44;;;;;;;11.15;6.43;;;25.40;90.00;;;;;;5101954;28;20067;-74
2021/06/03 10:33:24;;;;;;;9.05;6.32;;;25.10;88.10;;;;;;5093906;28;20028;-74
2021/06/03 10:35:55;;;;;;;7.72;6.40;;;24.80;86.10;;;;;;5084038;28;20074;-74
2021/06/03 10:38:22;;;;;;;7.28;5.88;;;24.80;87.20;;;;;;5084000;28;20027;-74
2021/06/03 10:40:55;;;;;;;10.85;6.07;;;25.20;87.60;;;;;;5089510;28;20347;-74
2021/06/03 10:43:21;;;;;;;9.15;6.43;;;25.60;89.10;;;;;;5104104;28;20102;-74
2021/06/03 10:45:47;;;;;;;11.18;6.22;;;25.60;86.60;;;;;;5102275;28;20031;-74
2021/06/03 10:48:13;;;;;;;9.07;4.72;;;25.40;87.50;;;;;;5096421;28;20381;-74
2021/06/03 10:50:49;;;;;;;6.32;3.20;;;25.90;88.30;;;;;;5087285;28;20024;-74
2021/06/03 10:53:18;;;;;;;5.35;3.00;;;26.10;85.10;;;;;;5094309;28;20153;-74
2021/06/03 10:55:55;;;;;;;7.07;3.13;;;26.30;84.90;;;;;;5104208;28;20019;-74
2021/06/03 10:58:38;;;;;;;5.05;2.53;;;26.70;84.30;;;;;;5104310;28;20036;-76
2021/06/03 11:01:06;;;;;;;5.10;2.95;;;26.60;82.60;;;;;;5090424;28;20111;-75
2021/06/03 11:03:56;;;;;;;8.35;3.40;;;26.80;82.00;;;;;;5105999;28;20082;-78
2021/06/03 11:06:25;;;;;;;7.35;3.10;;;26.70;82.20;;;;;;5104570;28;20118;-76
2021/06/03 11:08:57;;;;;;;7.60;3.22;;;26.80;83.30;;;;;;5105484;28;20544;-77
2021/06/03 11:11:36;;;;;;;5.20;2.92;;;26.80;81.60;;;;;;5088203;28;20465;-76
2021/06/03 11:14:11;;;;;;;5.75;3.28;;;26.70;82.00;;;;;;5101528;28;20051;-77
2021/06/03 11:16:39;;;;;;;7.35;3.30;;;26.80;82.10;;;;;;5087458;28;20028;-76
2021/06/03 11:19:06;;;;;;;5.47;3.17;;;26.90;82.40;;;;;;5087589;28;20050;-76
2021/06/03 11:21:32;;;;;;;6.40;3.58;;;27.00;82.80;;;;;;5086985;28;20071;-76
2021/06/03 11:24:24;;;;;;;5.97;3.42;;;26.90;81.80;;;;;;5087414;28;20024;-76
2021/06/03 11:26:52;;;;;;;4.78;3.13;;;27.00;82.80;;;;;;5081385;28;20046;-76
2021/06/03 11:29:21;;;;;;;5.13;3.05;;;27.00;82.10;;;;;;5087977;28;20028;-76
2021/06/03 11:31:47;;;;;;;6.22;3.38;;;26.80;81.90;;;;;;5107784;28;20057;-76
2021/06/03 11:34:36;;;;;;;7.35;3.50;;;27.00;82.50;;;;;;5107723;28;20023;-76
2021/06/03 11:37:04;;;;;;;6.70;3.65;;;26.80;82.20;;;;;;5083224;28;20155;-76
2021/06/03 11:39:32;;;;;;;7.55;3.22;;;27.00;81.50;;;;;;5100248;28;20394;-76
2021/06/03 11:42:26;;;;;;;7.38;3.75;;;26.90;81.30;;;;;;5087493;28;20058;-76
2021/06/03 11:45:12;;;;;;;6.95;3.28;;;26.70;84.50;;;;;;5087233;28;20081;-76
2021/06/03 11:47:38;;;;;;;4.25;2.72;;;27.00;83.10;;;;;;5098765;28;20039;-76
2021/06/03 11:50:29;;;;;;;10.18;3.85;;;26.90;80.20;;;;;;5096563;28;20030;-76
2021/06/03 11:55:27;;;;;;;7.90;2.92;;;27.10;82.30;;;;;;5107037;28;20066;-77
2021/06/03 11:58:26;;;;;;;6.40;2.70;;;27.10;82.90;;;;;;5087148;28;20024;-76
2021/06/03 12:00:59;;;;;;;8.93;3.72;;;27.20;81.70;;;;;;5086619;28;20032;-76
2021/06/03 12:03:38;;;;;;;10.80;3.40;;;27.10;80.80;;;;;;5086716;28;21009;-76
2021/06/03 12:06:27;;;;;;;6.20;3.17;;;27.20;80.40;;;;;;5086651;28;20043;-76
2021/06/03 12:08:54;;;;;;;5.47;2.85;;;27.20;81.20;;;;;;5096668;28;20036;-76
2021/06/03 12:11:25;;;;;;;9.90;3.55;;;27.30;80.90;;;;;;5106767;28;20040;-76
2021/06/03 12:14:10;;;;;;;7.05;3.30;;;27.30;80.90;;;;;;5106515;28;20050;-76
2021/06/03 12:16:42;;;;;;;5.78;2.88;;;27.30;81.70;;;;;;5103530;28;20024;-76
2021/06/03 12:19:17;;;;;;;7.13;3.33;;;27.50;81.80;;;;;;5095835;28;20039;-76
2021/06/03 12:21:49;;;;;;;8.90;3.05;;;27.50;79.50;;;;;;5106260;28;20489;-76
2021/06/03 12:24:15;;;;;;;5.18;3.15;;;27.40;81.20;;;;;;5105486;28;20433;-76
2021/06/03 12:26:42;;;;;;;4.97;3.00;;;27.50;80.10;;;;;;5106165;28;20027;-76
2021/06/03 12:29:23;;;;;;;7.78;2.88;;;27.60;80.60;;;;;;5086692;28;20016;-76
2021/06/03 12:31:50;;;;;;;4.70;3.00;;;27.80;80.20;;;;;;5085973;28;20028;-76
2021/06/03 12:34:24;;;;;;;5.07;2.63;;;28.10;81.60;;;;;;5086489;28;20534;-76
2021/06/03 12:36:51;;;;;;;7.63;2.63;;;28.20;80.80;;;;;;5086371;28;20028;-76
2021/06/03 12:39:17;;;;;;;6.20;3.05;;;28.50;80.90;;;;;;5086186;28;20050;-76
2021/06/03 12:41:43;;;;;;;4.82;2.92;;;28.30;80.00;;;;;;5085687;28;20028;-77
2021/06/03 12:44:15;;;;;;;6.93;2.97;;;28.10;79.40;;;;;;5085599;28;20426;-76
2021/06/03 12:46:55;;;;;;;5.78;2.70;;;28.20;80.50;;;;;;5086187;28;20039;-77
2021/06/03 12:49:25;;;;;;;5.53;2.65;;;28.40;79.30;;;;;;5085447;28;20020;-76
2021/06/03 12:51:53;;;;;;;5.18;3.35;;;28.40;80.50;;;;;;5090544;28;20046;-76
2021/06/03 12:54:34;;;;;;;6.43;2.72;;;28.40;79.30;;;;;;5105561;28;20155;-76
2021/06/03 12:57:03;;;;;;;9.75;3.22;;;28.50;79.50;;;;;;5105572;27;20031;-76